Flight Briefing for CPX307

Departure Arrival
Seattle-Tacoma International Airport (KSEA)
Click to view FAA NOTAMS
Portland International Airport (KPDX)
Click to view FAA NOTAMS
Departure Time Arrival Time
N/A N/A
Aircraft Distance
B767-300BDSF 112nm
Departure METAR Arrival METAR
KSEA 221053Z 14004KT 10SM SCT049 BKN130 10/06 A2997 RMK AO2 SLP155 T01000061 KPDX 221053Z 09006KT 10SM SCT019 SCT150 07/05 A3000 RMK AO2 SLP157 T00670050
Suggested Route
SEA HELNS6


View recent IFR Routes data
Notes



Charts and Procedures

Charts for KSEA
No chart available
Charts for KPDX
No chart available

Windy.com Weather Map